sensor_id;sensor_type;location;lat;lon;timestamp;temperature;humidity
17033;DHT22;63208;52.178;21.016;2023-04-03T00:06:21;3.30;99.90
17033;DHT22;63208;52.178;21.016;2023-04-03T00:08:48;3.30;99.90
17033;DHT22;63208;52.178;21.016;2023-04-03T00:23:32;3.10;99.90
17033;DHT22;63208;52.178;21.016;2023-04-03T00:28:26;3.00;99.90
17033;DHT22;63208;52.178;21.016;2023-04-03T00:38:14;2.90;99.90
17033;DHT22;63208;52.178;21.016;2023-04-03T00:40:44;2.80;99.90
17033;DHT22;63208;52.178;21.016;2023-04-03T00:50:32;2.70;99.90
17033;DHT22;63208;52.178;21.016;2023-04-03T00:53:00;2.70;99.90
17033;DHT22;63208;52.178;21.016;2023-04-03T00:55:27;2.60;99.90
17033;DHT22;63208;52.178;21.016;2023-04-03T00:57:57;2.60;99.90
17033;DHT22;63208;52.178;21.016;2023-04-03T01:00:24;2.60;99.90
17033;DHT22;63208;52.178;21.016;2023-04-03T01:02:51;2.60;99.90
17033;DHT22;63208;52.178;21.016;2023-04-03T01:07:45;2.60;99.90
17033;DHT22;63208;52.178;21.016;2023-04-03T01:17:35;2.40;99.90
17033;DHT22;63208;52.178;21.016;2023-04-03T01:22:57;2.40;99.90
17033;DHT22;63208;52.178;21.016;2023-04-03T01:30:19;2.30;99.90
17033;DHT22;63208;52.178;21.016;2023-04-03T01:32:48;2.30;99.90
17033;DHT22;63208;52.178;21.016;2023-04-03T01:35:14;2.20;99.90
17033;DHT22;63208;52.178;21.016;2023-04-03T01:40:08;2.20;99.90
17033;DHT22;63208;52.178;21.016;2023-04-03T01:42:35;2.10;99.90
17033;DHT22;63208;52.178;21.016;2023-04-03T01:45:02;2.10;99.90
17033;DHT22;63208;52.178;21.016;2023-04-03T01:47:29;2.10;99.90
17033;DHT22;63208;52.178;21.016;2023-04-03T01:57:18;2.10;99.90
17033;DHT22;63208;52.178;21.016;2023-04-03T02:04:40;2.00;99.90
17033;DHT22;63208;52.178;21.016;2023-04-03T02:07:06;2.00;99.90
17033;DHT22;63208;52.178;21.016;2023-04-03T02:09:33;1.90;99.90
17033;DHT22;63208;52.178;21.016;2023-04-03T02:14:28;1.80;99.90
17033;DHT22;63208;52.178;21.016;2023-04-03T02:29:10;1.80;99.90
17033;DHT22;63208;52.178;21.016;2023-04-03T02:31:38;1.80;99.90
17033;DHT22;63208;52.178;21.016;2023-04-03T02:36:34;1.70;99.90
17033;DHT22;63208;52.178;21.016;2023-04-03T02:39:03;1.70;99.90
17033;DHT22;63208;52.178;21.016;2023-04-03T02:41:29;1.70;99.90
17033;DHT22;63208;52.178;21.016;2023-04-03T02:56:19;1.50;99.90
17033;DHT22;63208;52.178;21.016;2023-04-03T02:58:46;1.50;99.90
17033;DHT22;63208;52.178;21.016;2023-04-03T03:01:13;1.60;99.90
17033;DHT22;63208;52.178;21.016;2023-04-03T03:06:07;1.60;99.90
17033;DHT22;63208;52.178;21.016;2023-04-03T03:13:30;1.50;99.90
17033;DHT22;63208;52.178;21.016;2023-04-03T03:18:24;1.40;99.90
17033;DHT22;63208;52.178;21.016;2023-04-03T03:23:17;1.30;99.90
17033;DHT22;63208;52.178;21.016;2023-04-03T03:28:11;1.30;99.90
17033;DHT22;63208;52.178;21.016;2023-04-03T03:33:06;1.20;99.90
17033;DHT22;63208;52.178;21.016;2023-04-03T03:35:33;1.20;99.90
17033;DHT22;63208;52.178;21.016;2023-04-03T03:38:00;1.30;99.90
17033;DHT22;63208;52.178;21.016;2023-04-03T03:42:54;1.10;99.90
17033;DHT22;63208;52.178;21.016;2023-04-03T03:45:21;1.10;99.90
17033;DHT22;63208;52.178;21.016;2023-04-03T03:47:47;1.10;99.90
17033;DHT22;63208;52.178;21.016;2023-04-03T03:50:16;1.10;99.90
17033;DHT22;63208;52.178;21.016;2023-04-03T03:52:42;1.10;99.90
17033;DHT22;63208;52.178;21.016;2023-04-03T03:55:09;1.10;99.90
17033;DHT22;63208;52.178;21.016;2023-04-03T04:02:30;1.00;99.90
17033;DHT22;63208;52.178;21.016;2023-04-03T04:04:57;1.00;99.90
17033;DHT22;63208;52.178;21.016;2023-04-03T04:07:25;0.90;99.90
17033;DHT22;63208;52.178;21.016;2023-04-03T04:09:53;1.00;99.90
17033;DHT22;63208;52.178;21.016;2023-04-03T04:17:29;1.00;99.90
17033;DHT22;63208;52.178;21.016;2023-04-03T04:20:10;1.00;99.90
17033;DHT22;63208;52.178;21.016;2023-04-03T04:22:39;0.90;99.90
17033;DHT22;63208;52.178;21.016;2023-04-03T04:27:32;1.00;99.90
17033;DHT22;63208;52.178;21.016;2023-04-03T04:29:59;0.90;99.90
17033;DHT22;63208;52.178;21.016;2023-04-03T04:56:47;0.80;99.90
17033;DHT22;63208;52.178;21.016;2023-04-03T05:01:41;0.70;99.90
17033;DHT22;63208;52.178;21.016;2023-04-03T05:04:08;0.80;99.90
17033;DHT22;63208;52.178;21.016;2023-04-03T05:11:37;0.80;99.90
17033;DHT22;63208;52.178;21.016;2023-04-03T05:16:33;0.80;99.90
17033;DHT22;63208;52.178;21.016;2023-04-03T05:19:03;0.90;99.90
17033;DHT22;63208;52.178;21.016;2023-04-03T05:21:43;0.80;99.90
17033;DHT22;63208;52.178;21.016;2023-04-03T05:24:10;0.70;99.90
17033;DHT22;63208;52.178;21.016;2023-04-03T05:26:37;0.80;99.90
17033;DHT22;63208;52.178;21.016;2023-04-03T05:29:04;0.90;99.90
17033;DHT22;63208;52.178;21.016;2023-04-03T05:31:32;0.80;99.90
17033;DHT22;63208;52.178;21.016;2023-04-03T05:33:59;0.80;99.90
17033;DHT22;63208;52.178;21.016;2023-04-03T05:43:48;0.90;99.90
17033;DHT22;63208;52.178;21.016;2023-04-03T05:46:15;0.90;99.90
17033;DHT22;63208;52.178;21.016;2023-04-03T05:48:44;0.80;99.90
17033;DHT22;63208;52.178;21.016;2023-04-03T05:59:09;0.90;99.90
17033;DHT22;63208;52.178;21.016;2023-04-03T06:01:20;1.00;99.90
17033;DHT22;63208;52.178;21.016;2023-04-03T06:03:48;1.10;99.90
17033;DHT22;63208;52.178;21.016;2023-04-03T06:06:15;1.10;99.90
17033;DHT22;63208;52.178;21.016;2023-04-03T06:08:42;1.10;99.90
17033;DHT22;63208;52.178;21.016;2023-04-03T06:13:51;1.20;99.90
17033;DHT22;63208;52.178;21.016;2023-04-03T06:26:09;1.40;99.90
17033;DHT22;63208;52.178;21.016;2023-04-03T06:28:36;1.50;99.90
17033;DHT22;63208;52.178;21.016;2023-04-03T06:31:03;1.50;99.90
17033;DHT22;63208;52.178;21.016;2023-04-03T06:33:30;1.20;99.90
17033;DHT22;63208;52.178;21.016;2023-04-03T06:38:33;1.30;99.90
17033;DHT22;63208;52.178;21.016;2023-04-03T06:43:28;1.30;99.90
17033;DHT22;63208;52.178;21.016;2023-04-03T06:45:56;1.40;99.90
17033;DHT22;63208;52.178;21.016;2023-04-03T06:48:23;1.40;99.90
17033;DHT22;63208;52.178;21.016;2023-04-03T06:50:53;1.40;99.90
17033;DHT22;63208;52.178;21.016;2023-04-03T06:53:26;1.30;99.90
17033;DHT22;63208;52.178;21.016;2023-04-03T06:58:35;1.50;99.90
17033;DHT22;63208;52.178;21.016;2023-04-03T07:06:47;1.50;99.90
17033;DHT22;63208;52.178;21.016;2023-04-03T07:15:09;1.70;99.90
17033;DHT22;63208;52.178;21.016;2023-04-03T07:17:37;1.70;99.90
17033;DHT22;63208;52.178;21.016;2023-04-03T07:20:07;1.70;99.90
17033;DHT22;63208;52.178;21.016;2023-04-03T07:22:34;1.70;99.90
17033;DHT22;63208;52.178;21.016;2023-04-03T07:25:01;1.80;99.90
17033;DHT22;63208;52.178;21.016;2023-04-03T07:30:12;1.90;99.90
17033;DHT22;63208;52.178;21.016;2023-04-03T07:32:39;1.90;99.90
17033;DHT22;63208;52.178;21.016;2023-04-03T07:38:10;2.10;99.90
17033;DHT22;63208;52.178;21.016;2023-04-03T07:40:37;2.10;99.90
17033;DHT22;63208;52.178;21.016;2023-04-03T07:43:04;2.20;99.90
17033;DHT22;63208;52.178;21.016;2023-04-03T07:45:34;2.20;99.90
17033;DHT22;63208;52.178;21.016;2023-04-03T07:48:01;2.40;99.90
17033;DHT22;63208;52.178;21.016;2023-04-03T07:50:28;2.40;99.90
17033;DHT22;63208;52.178;21.016;2023-04-03T07:52:55;2.40;99.90
17033;DHT22;63208;52.178;21.016;2023-04-03T07:55:23;2.40;99.90
17033;DHT22;63208;52.178;21.016;2023-04-03T07:57:50;2.40;99.90
17033;DHT22;63208;52.178;21.016;2023-04-03T08:00:17;2.50;99.90
17033;DHT22;63208;52.178;21.016;2023-04-03T08:03:10;2.50;99.90
17033;DHT22;63208;52.178;21.016;2023-04-03T08:05:38;2.50;99.90
17033;DHT22;63208;52.178;21.016;2023-04-03T08:08:05;2.50;99.90
17033;DHT22;63208;52.178;21.016;2023-04-03T08:10:32;2.60;99.90
17033;DHT22;63208;52.178;21.016;2023-04-03T08:13:00;2.70;99.90
17033;DHT22;63208;52.178;21.016;2023-04-03T08:15:26;2.80;99.90
17033;DHT22;63208;52.178;21.016;2023-04-03T08:17:53;3.00;99.90
17033;DHT22;63208;52.178;21.016;2023-04-03T08:20:24;3.00;99.90
17033;DHT22;63208;52.178;21.016;2023-04-03T08:22:54;2.80;99.90
17033;DHT22;63208;52.178;21.016;2023-04-03T08:25:21;2.80;99.90
17033;DHT22;63208;52.178;21.016;2023-04-03T08:27:48;2.90;99.90
17033;DHT22;63208;52.178;21.016;2023-04-03T08:30:15;3.60;99.90
17033;DHT22;63208;52.178;21.016;2023-04-03T08:32:42;2.90;99.90
17033;DHT22;63208;52.178;21.016;2023-04-03T08:35:09;2.90;99.90
17033;DHT22;63208;52.178;21.016;2023-04-03T08:37:37;2.90;99.90
17033;DHT22;63208;52.178;21.016;2023-04-03T08:40:06;2.20;99.90
17033;DHT22;63208;52.178;21.016;2023-04-03T08:42:36;3.10;99.90
17033;DHT22;63208;52.178;21.016;2023-04-03T08:45:08;3.10;99.90
17033;DHT22;63208;52.178;21.016;2023-04-03T08:47:37;3.10;99.90
17033;DHT22;63208;52.178;21.016;2023-04-03T08:50:06;3.00;99.90
17033;DHT22;63208;52.178;21.016;2023-04-03T08:52:34;3.00;99.90
17033;DHT22;63208;52.178;21.016;2023-04-03T08:55:04;2.40;99.90
17033;DHT22;63208;52.178;21.016;2023-04-03T09:00:17;3.10;99.90
17033;DHT22;63208;52.178;21.016;2023-04-03T09:05:41;3.30;99.90
17033;DHT22;63208;52.178;21.016;2023-04-03T09:08:14;3.30;99.90
17033;DHT22;63208;52.178;21.016;2023-04-03T09:13:26;3.30;99.90
17033;DHT22;63208;52.178;21.016;2023-04-03T09:15:54;3.30;99.90
17033;DHT22;63208;52.178;21.016;2023-04-03T09:18:23;3.30;99.90
17033;DHT22;63208;52.178;21.016;2023-04-03T09:32:51;4.30;99.90
17033;DHT22;63208;52.178;21.016;2023-04-03T09:38:18;4.10;99.90
17033;DHT22;63208;52.178;21.016;2023-04-03T09:44:02;4.00;99.90
17033;DHT22;63208;52.178;21.016;2023-04-03T09:46:29;4.20;99.90
17033;DHT22;63208;52.178;21.016;2023-04-03T09:49:16;4.30;99.90
17033;DHT22;63208;52.178;21.016;2023-04-03T09:51:57;4.40;99.90
17033;DHT22;63208;52.178;21.016;2023-04-03T10:02:39;4.30;98.40
17033;DHT22;63208;52.178;21.016;2023-04-03T10:05:24;4.30;99.60
17033;DHT22;63208;52.178;21.016;2023-04-03T10:07:51;4.00;99.00
17033;DHT22;63208;52.178;21.016;2023-04-03T10:13:11;4.10;98.40
17033;DHT22;63208;52.178;21.016;2023-04-03T10:15:39;4.10;98.80
17033;DHT22;63208;52.178;21.016;2023-04-03T10:18:12;4.30;99.50
17033;DHT22;63208;52.178;21.016;2023-04-03T10:20:44;4.20;99.40
17033;DHT22;63208;52.178;21.016;2023-04-03T10:23:14;4.40;99.90
17033;DHT22;63208;52.178;21.016;2023-04-03T10:25:43;4.50;99.90
17033;DHT22;63208;52.178;21.016;2023-04-03T10:34:11;4.80;96.50
17033;DHT22;63208;52.178;21.016;2023-04-03T10:36:43;5.70;96.30
17033;DHT22;63208;52.178;21.016;2023-04-03T10:39:15;4.40;95.90
17033;DHT22;63208;52.178;21.016;2023-04-03T11:11:40;4.90;94.70
17033;DHT22;63208;52.178;21.016;2023-04-03T11:14:31;4.80;95.40
17033;DHT22;63208;52.178;21.016;2023-04-03T11:17:09;4.80;96.20
17033;DHT22;63208;52.178;21.016;2023-04-03T11:19:39;4.90;96.40
17033;DHT22;63208;52.178;21.016;2023-04-03T11:22:10;4.90;95.80
17033;DHT22;63208;52.178;21.016;2023-04-03T11:24:41;5.70;95.20
17033;DHT22;63208;52.178;21.016;2023-04-03T11:27:11;5.00;95.40
17033;DHT22;63208;52.178;21.016;2023-04-03T11:29:40;5.60;95.30
17033;DHT22;63208;52.178;21.016;2023-04-03T11:32:13;5.60;95.20
17033;DHT22;63208;52.178;21.016;2023-04-03T11:37:44;5.20;94.80
17033;DHT22;63208;52.178;21.016;2023-04-03T11:40:48;5.50;94.40
17033;DHT22;63208;52.178;21.016;2023-04-03T11:46:54;5.50;94.00
17033;DHT22;63208;52.178;21.016;2023-04-03T11:52:08;5.50;94.30
17033;DHT22;63208;52.178;21.016;2023-04-03T11:54:42;6.00;94.40
17033;DHT22;63208;52.178;21.016;2023-04-03T12:02:54;5.60;91.20
17033;DHT22;63208;52.178;21.016;2023-04-03T12:08:27;5.80;93.60
17033;DHT22;63208;52.178;21.016;2023-04-03T12:11:13;6.10;93.60
17033;DHT22;63208;52.178;21.016;2023-04-03T12:13:42;6.80;91.90
17033;DHT22;63208;52.178;21.016;2023-04-03T12:16:28;6.80;91.80
17033;DHT22;63208;52.178;21.016;2023-04-03T12:18:59;6.70;91.80
17033;DHT22;63208;52.178;21.016;2023-04-03T12:24:23;6.80;91.20
17033;DHT22;63208;52.178;21.016;2023-04-03T12:29:59;6.30;86.40
17033;DHT22;63208;52.178;21.016;2023-04-03T12:32:34;6.00;85.60
17033;DHT22;63208;52.178;21.016;2023-04-03T12:35:10;6.00;83.90
17033;DHT22;63208;52.178;21.016;2023-04-03T12:37:40;6.30;85.30
17033;DHT22;63208;52.178;21.016;2023-04-03T12:42:42;6.20;84.10
17033;DHT22;63208;52.178;21.016;2023-04-03T12:45:15;5.90;82.90
17033;DHT22;63208;52.178;21.016;2023-04-03T12:47:44;6.00;84.80
17033;DHT22;63208;52.178;21.016;2023-04-03T12:50:22;6.40;84.10
17033;DHT22;63208;52.178;21.016;2023-04-03T12:52:52;7.20;84.60
17033;DHT22;63208;52.178;21.016;2023-04-03T12:55:21;7.10;82.60
17033;DHT22;63208;52.178;21.016;2023-04-03T12:58:13;6.80;81.70
17033;DHT22;63208;52.178;21.016;2023-04-03T13:09:20;6.50;85.40
17033;DHT22;63208;52.178;21.016;2023-04-03T13:19:14;7.30;80.70
17033;DHT22;63208;52.178;21.016;2023-04-03T13:21:42;6.70;80.50
17033;DHT22;63208;52.178;21.016;2023-04-03T13:24:09;6.80;82.30
17033;DHT22;63208;52.178;21.016;2023-04-03T13:26:38;6.70;81.50
17033;DHT22;63208;52.178;21.016;2023-04-03T13:29:05;6.70;81.80
17033;DHT22;63208;52.178;21.016;2023-04-03T13:31:36;6.80;82.40
17033;DHT22;63208;52.178;21.016;2023-04-03T13:34:05;6.70;81.60
17033;DHT22;63208;52.178;21.016;2023-04-03T13:36:34;6.70;83.80
17033;DHT22;63208;52.178;21.016;2023-04-03T13:39:03;6.50;84.00
17033;DHT22;63208;52.178;21.016;2023-04-03T13:41:32;6.40;84.00
17033;DHT22;63208;52.178;21.016;2023-04-03T13:49:58;6.40;81.80
17033;DHT22;63208;52.178;21.016;2023-04-03T13:52:32;6.40;84.50
17033;DHT22;63208;52.178;21.016;2023-04-03T14:09:46;7.20;82.10
17033;DHT22;63208;52.178;21.016;2023-04-03T14:17:31;6.70;81.10
17033;DHT22;63208;52.178;21.016;2023-04-03T14:19:58;6.60;83.00
17033;DHT22;63208;52.178;21.016;2023-04-03T14:22:26;6.60;82.60
17033;DHT22;63208;52.178;21.016;2023-04-03T14:24:55;6.90;80.40
17033;DHT22;63208;52.178;21.016;2023-04-03T14:27:23;7.00;82.00
17033;DHT22;63208;52.178;21.016;2023-04-03T14:29:51;6.70;81.30
17033;DHT22;63208;52.178;21.016;2023-04-03T14:32:21;6.70;80.80
17033;DHT22;63208;52.178;21.016;2023-04-03T14:34:48;6.50;81.10
17033;DHT22;63208;52.178;21.016;2023-04-03T14:37:16;6.50;82.00
17033;DHT22;63208;52.178;21.016;2023-04-03T14:39:44;6.60;82.00
17033;DHT22;63208;52.178;21.016;2023-04-03T14:42:13;6.50;79.70
17033;DHT22;63208;52.178;21.016;2023-04-03T14:44:41;6.40;79.40
17033;DHT22;63208;52.178;21.016;2023-04-03T14:47:09;6.30;79.60
17033;DHT22;63208;52.178;21.016;2023-04-03T14:49:36;9.50;82.50
17033;DHT22;63208;52.178;21.016;2023-04-03T14:52:03;6.30;80.20
17033;DHT22;63208;52.178;21.016;2023-04-03T14:54:29;6.30;80.00
17033;DHT22;63208;52.178;21.016;2023-04-03T14:56:57;6.20;80.40
17033;DHT22;63208;52.178;21.016;2023-04-03T14:59:25;6.10;81.40
17033;DHT22;63208;52.178;21.016;2023-04-03T15:01:52;6.10;81.50
17033;DHT22;63208;52.178;21.016;2023-04-03T15:04:20;6.00;81.30
17033;DHT22;63208;52.178;21.016;2023-04-03T15:06:47;6.00;80.60
17033;DHT22;63208;52.178;21.016;2023-04-03T15:09:19;5.90;80.90
17033;DHT22;63208;52.178;21.016;2023-04-03T15:11:47;5.80;81.30
17033;DHT22;63208;52.178;21.016;2023-04-03T15:14:13;5.80;81.10
17033;DHT22;63208;52.178;21.016;2023-04-03T15:16:44;5.80;81.30
17033;DHT22;63208;52.178;21.016;2023-04-03T15:19:11;5.70;81.50
17033;DHT22;63208;52.178;21.016;2023-04-03T15:26:51;5.70;81.50
17033;DHT22;63208;52.178;21.016;2023-04-03T15:29:18;5.60;82.10
17033;DHT22;63208;52.178;21.016;2023-04-03T15:34:41;5.60;82.80
17033;DHT22;63208;52.178;21.016;2023-04-03T15:43:16;5.60;86.90
17033;DHT22;63208;52.178;21.016;2023-04-03T15:45:43;5.40;87.00
17033;DHT22;63208;52.178;21.016;2023-04-03T15:48:12;5.50;87.80
17033;DHT22;63208;52.178;21.016;2023-04-03T15:50:45;5.40;85.80
17033;DHT22;63208;52.178;21.016;2023-04-03T15:56:17;5.40;84.00
17033;DHT22;63208;52.178;21.016;2023-04-03T16:04:53;5.40;84.80
17033;DHT22;63208;52.178;21.016;2023-04-03T16:10:11;5.30;86.30
17033;DHT22;63208;52.178;21.016;2023-04-03T16:12:39;5.30;87.30
17033;DHT22;63208;52.178;21.016;2023-04-03T16:25:54;5.40;85.60
17033;DHT22;63208;52.178;21.016;2023-04-03T16:33:33;5.30;86.40
17033;DHT22;63208;52.178;21.016;2023-04-03T16:41:38;5.30;86.20
17033;DHT22;63208;52.178;21.016;2023-04-03T16:44:06;5.30;86.00
17033;DHT22;63208;52.178;21.016;2023-04-03T16:46:35;5.20;85.80
17033;DHT22;63208;52.178;21.016;2023-04-03T16:56:38;5.30;88.40
17033;DHT22;63208;52.178;21.016;2023-04-03T17:01:36;5.30;88.40
17033;DHT22;63208;52.178;21.016;2023-04-03T17:19:06;5.10;89.70
17033;DHT22;63208;52.178;21.016;2023-04-03T17:21:35;5.00;90.00
17033;DHT22;63208;52.178;21.016;2023-04-03T17:26:36;4.90;89.10
17033;DHT22;63208;52.178;21.016;2023-04-03T17:29:03;4.90;89.70
17033;DHT22;63208;52.178;21.016;2023-04-03T17:31:32;4.90;90.00
17033;DHT22;63208;52.178;21.016;2023-04-03T17:50:10;4.90;89.40
17033;DHT22;63208;52.178;21.016;2023-04-03T17:55:07;4.90;89.40
17033;DHT22;63208;52.178;21.016;2023-04-03T17:57:34;4.90;90.00
17033;DHT22;63208;52.178;21.016;2023-04-03T18:00:01;4.90;89.40
17033;DHT22;63208;52.178;21.016;2023-04-03T18:02:31;4.90;90.10
17033;DHT22;63208;52.178;21.016;2023-04-03T18:10:56;4.70;90.90
17033;DHT22;63208;52.178;21.016;2023-04-03T18:13:25;4.70;91.10
17033;DHT22;63208;52.178;21.016;2023-04-03T18:32:28;4.50;92.70
17033;DHT22;63208;52.178;21.016;2023-04-03T18:35:04;4.60;92.90
17033;DHT22;63208;52.178;21.016;2023-04-03T18:37:33;4.60;92.90
17033;DHT22;63208;52.178;21.016;2023-04-03T18:43:03;4.60;92.90
17033;DHT22;63208;52.178;21.016;2023-04-03T18:48:22;4.60;94.00
17033;DHT22;63208;52.178;21.016;2023-04-03T18:50:49;4.60;94.10
17033;DHT22;63208;52.178;21.016;2023-04-03T18:53:17;4.50;94.80
17033;DHT22;63208;52.178;21.016;2023-04-03T18:55:44;4.40;94.80
17033;DHT22;63208;52.178;21.016;2023-04-03T18:58:11;4.40;96.00
17033;DHT22;63208;52.178;21.016;2023-04-03T19:03:05;4.30;97.00
17033;DHT22;63208;52.178;21.016;2023-04-03T19:05:33;4.30;97.70
17033;DHT22;63208;52.178;21.016;2023-04-03T19:12:54;4.20;99.00
17033;DHT22;63208;52.178;21.016;2023-04-03T19:15:21;4.10;99.70
17033;DHT22;63208;52.178;21.016;2023-04-03T19:20:16;4.00;99.90
17033;DHT22;63208;52.178;21.016;2023-04-03T19:22:58;3.90;99.90
17033;DHT22;63208;52.178;21.016;2023-04-03T19:25:37;6.00;99.90
17033;DHT22;63208;52.178;21.016;2023-04-03T19:28:04;4.00;99.90
17033;DHT22;63208;52.178;21.016;2023-04-03T19:30:30;4.00;99.90
17033;DHT22;63208;52.178;21.016;2023-04-03T19:32:57;4.00;99.90
17033;DHT22;63208;52.178;21.016;2023-04-03T19:38:14;4.00;99.90
17033;DHT22;63208;52.178;21.016;2023-04-03T19:40:41;4.00;99.90
17033;DHT22;63208;52.178;21.016;2023-04-03T19:45:37;4.00;99.90
17033;DHT22;63208;52.178;21.016;2023-04-03T19:48:04;3.90;99.90
17033;DHT22;63208;52.178;21.016;2023-04-03T19:50:31;4.00;99.90
17033;DHT22;63208;52.178;21.016;2023-04-03T19:52:59;3.90;99.90
17033;DHT22;63208;52.178;21.016;2023-04-03T19:55:27;4.00;99.90
17033;DHT22;63208;52.178;21.016;2023-04-03T19:57:56;3.90;99.90
17033;DHT22;63208;52.178;21.016;2023-04-03T20:00:24;3.80;99.90
17033;DHT22;63208;52.178;21.016;2023-04-03T20:02:51;3.90;99.90
17033;DHT22;63208;52.178;21.016;2023-04-03T20:05:18;3.90;99.90
17033;DHT22;63208;52.178;21.016;2023-04-03T20:07:44;3.90;99.90
17033;DHT22;63208;52.178;21.016;2023-04-03T20:15:57;3.90;99.90
17033;DHT22;63208;52.178;21.016;2023-04-03T20:18:26;3.90;99.90
17033;DHT22;63208;52.178;21.016;2023-04-03T20:20:53;3.90;99.90
17033;DHT22;63208;52.178;21.016;2023-04-03T20:23:20;3.80;99.90
17033;DHT22;63208;52.178;21.016;2023-04-03T20:25:48;3.90;99.90
17033;DHT22;63208;52.178;21.016;2023-04-03T20:28:15;3.80;99.90
17033;DHT22;63208;52.178;21.016;2023-04-03T20:30:44;3.80;99.90
17033;DHT22;63208;52.178;21.016;2023-04-03T20:33:13;3.80;99.90
17033;DHT22;63208;52.178;21.016;2023-04-03T20:35:40;3.70;99.90
17033;DHT22;63208;52.178;21.016;2023-04-03T20:38:07;3.60;99.90
17033;DHT22;63208;52.178;21.016;2023-04-03T20:40:35;3.50;99.90
17033;DHT22;63208;52.178;21.016;2023-04-03T20:43:02;3.50;99.90
17033;DHT22;63208;52.178;21.016;2023-04-03T20:45:29;3.50;99.90
17033;DHT22;63208;52.178;21.016;2023-04-03T20:47:56;3.60;99.90
17033;DHT22;63208;52.178;21.016;2023-04-03T20:50:25;3.50;99.90
17033;DHT22;63208;52.178;21.016;2023-04-03T20:52:53;3.60;99.90
17033;DHT22;63208;52.178;21.016;2023-04-03T20:55:20;3.50;99.90
